Dundee, MI

4:08 PM EDT on August 30, 2014 (GMT -0400)
Ann Arbor Municipal | Change Station
CLOSE
Current Station
Airport
Location: Ann Arbor,
Elevation: 837 ft
Nearby Weather Stations

Elev 837 ft 42.22 °N, 83.74 °W | Updated 15 minutes ago

Clear
Clear
84 °F
Feels Like 87 °F
N
13
Wind Variable Wind from SSW
Gusts 20 mph

Today
High -- | Low -- °F
--% Chance of Precip.
Yesterday
High -- | Low -- °F
Precip. -- in
6:58 AM 8:11 PM
Waxing Crescent, 24% visible
Pressure 29.88 in
Visibility 10.0 miles
Clouds Clear
Heat Index 87 °F
Dew Point 68 °F
Humidity 58%
Rainfall 0.00 in
Snow Depth Not available.
UV 6 out of 12
Pollen 9.50 out of 12
Ozone Good
PM2.5 Moderate
Flu Activity Not available.
METAR KARB 301953Z 21011G17KT 10SM CLR 29/20 A2989 RMK AO2 SLP116 T02890200

More Conditions Fewer Conditions

Pressure 29.88 in
Visibility 10.0 miles
Clouds Clear
Heat Index 87 °F
Dew Point 68 °F
Humidity 58%
Rainfall 0.00 in
Snow Depth Not available.
UV 6 out of 12
Pollen 9.50 out of 12
Ozone Good
PM2.5 Moderate
Flu Activity Not available.
METAR KARB 301953Z 21011G17KT 10SM CLR 29/20 A2989 RMK AO2 SLP116 T02890200

More Conditions Fewer Conditions

10-Day Weather Forecast

Almanac

Astronomy

Aug. 30, 2014 Rise Set
Actual Time 6:58 AM EDT 8:11 PM EDT
Civil Twilight 6:29 AM EDT 8:40 PM EDT
Nautical Twilight 5:54 AM EDT 9:14 PM EDT
Astronomical Twilight 5:18 AM EDT 9:50 PM EDT
Moon 11:50 AM EDT 10:39 PM EDT
Length of Visible Light 14h 10m
Length of Day
13h 13m
Tomorrow will be 2m 42s shorter.
Waxing Crescent, 24% of the Moon is Illuminated
Today
Waxing Crescent
Sep 2
First Quarter
Sep 8
Full
Sep 15
Last Quarter
Sep 24
New

Today's Extremes

State Highs State Lows

Community

WunderPhotos

Upload Photos

1,748,620 photos uploaded!

WunderBlogs® & News

Nearby

Air Quality

  Air Quality AQ Index Pollutant
Yesterday Good
OZONE
Yesterday Good
PM2.5
Current Moderate
PM2.5
Current Good
OZONE
Saturday Moderate
PM2.5
Saturday Good
OZONE
Sunday Good
OZONE
Sunday Good
PM2.5
Monday Good
OZONE
Monday Good
PM2.5
Tuesday Good
OZONE
Tuesday Good
PM2.5

Snow Depth

Station Depth Elevation
No new snow has been reported.

Earthquake Activity

City Distance Mag. Time & Date
No recent earthquake activity has been reported nearby.
Minimum magnitude displayed is 2.5.

Coastal Water Temperatures

Place Temperature
Marblehead, OH 73.9 °F

Nearby Weather Stations